SARE/RES METAR and TAF weather

Enter ICAO airport designator
Station Type Date Time Source
SARE METAR 2018/12/11 22:00 UTC NOAA

SARE 112200Z 36014KT CAVOK 36/20 Q1005


Station Type Date Time Source
SARE Decoded METAR 2018/12/11 22:00 UTC NOAA

Resistencia Aero., Argentina (SARE) 27-27S 059-03W 52M
Dec 11, 2018 - 05:00 PM EST / 2018.12.11 2200 UTC
Wind: from the N (360 degrees) at 16 MPH (14 KT):0
Visibility: greater than 7 mile(s):0
Temperature: 96 F (36 C)
Heat index: 100.2 F (37.9 C):1
Dew Point: 68 F (20 C)
Relative Humidity: 39%
Pressure (altimeter): 29.68 in. Hg (1005 hPa)
ob: SARE 112200Z 36014KT CAVOK 36/20 Q1005
cycle: 22

Station Type Date Time Source
SARE TAF 2018/12/11 18:24 UTC NOAA

TAF TAF SARE 111700Z 1118/1218 36015G30KT 9999 SCT035 TX39/1119Z TN24/1209Z
BECMG 1123/1124 36010KT PROB40
TEMPO 1209/1213 5000 TSRA SCT020 FEW050CB BKN100


Example: see airport list